Preview of NWS' New Version of Forecast
This preview is not operational and should not be used for support decisions.

Terminal Aerodrome Forecast (TAF)

Issued by National Weather Service (NWS)

                            
000
FTUS42 KKEY 161505 AAB
TAFMTH
TAF AMD
KMTH 161505Z 1615/1712 35011KT P6SM SCT035 SCT200
      TEMPO 1615/1617 BKN035
     FM161700 01007KT P6SM FEW035 SCT200=